Tipperary, Ireland
Current Conditions -  °F | °C
As of 11:30 AM on Saturday 20 Dec 2014 (Local Time) from EINN Reporting Station
Broken Clouds Broken Clouds  
Wind Chill: 43°   Ceiling: 3300
Heat Index: 48°   Visibility: 5mi
Dew Point: 45°   Wind: 13mph
Humidity: 87%   Direction: 230°SW
Pressure: 30.42"   Gusts: NA
Location:  52.49°N, 8.17°W
Report Text: EINN 201130Z 23011KT 8000 FEW008 SCT013 BKN033 09/07 Q1030 NOSIG
Loading
Personal Weather Stations






























Interactive Weather Map New forecast layout! Learn more

10-Day Weather Forecast

Advertisements
Track Severe Weather on mobile